createdAt,value
2024-02-17T00:00:50.484Z,96409.00
2024-02-17T00:01:50.201Z,96408.00
2024-02-17T00:02:50.128Z,96410.00
2024-02-17T00:03:50.229Z,96406.00
2024-02-17T00:04:50.235Z,96409.00
2024-02-17T00:05:50.220Z,96412.00
2024-02-17T00:06:50.263Z,96413.00
2024-02-17T00:07:50.234Z,96414.00
2024-02-17T00:08:50.310Z,96416.00
2024-02-17T00:09:50.357Z,96418.00
2024-02-17T00:10:50.311Z,96418.00
2024-02-17T00:11:50.322Z,96418.00
2024-02-17T00:12:50.375Z,96421.00
2024-02-17T00:13:50.313Z,96422.00
2024-02-17T00:14:50.313Z,96424.00
2024-02-17T00:15:50.394Z,96422.00
2024-02-17T00:16:50.326Z,96424.00
2024-02-17T00:17:50.362Z,96421.00
2024-02-17T00:18:50.443Z,96423.00
2024-02-17T00:19:50.500Z,96422.00
2024-02-17T00:20:50.410Z,96424.00
2024-02-17T00:21:50.400Z,96425.00
2024-02-17T00:22:50.409Z,96423.00
2024-02-17T00:23:50.407Z,96421.00
2024-02-17T00:24:50.527Z,96421.00
2024-02-17T00:25:50.450Z,96423.00
2024-02-17T00:26:50.444Z,96421.00
2024-02-17T00:27:50.518Z,96422.00
2024-02-17T00:28:50.516Z,96423.00
2024-02-17T00:29:50.554Z,96419.00
2024-02-17T00:30:50.549Z,96418.00
2024-02-17T00:31:50.573Z,96421.00
2024-02-17T00:32:50.608Z,96421.00
2024-02-17T00:33:50.729Z,96422.00
2024-02-17T00:34:50.671Z,96423.00
2024-02-17T00:35:50.717Z,96425.00
2024-02-17T00:36:50.707Z,96423.00
2024-02-17T00:37:50.741Z,96424.00
2024-02-17T00:38:50.790Z,96425.00
2024-02-17T00:39:50.840Z,96424.00
2024-02-17T00:40:50.798Z,96425.00
2024-02-17T00:41:50.815Z,96426.00
2024-02-17T00:42:50.868Z,96429.00
2024-02-17T00:43:50.834Z,96430.00
2024-02-17T00:44:50.828Z,96435.00
2024-02-17T00:45:50.868Z,96433.00
2024-02-17T00:46:50.857Z,96435.00
2024-02-17T00:47:50.951Z,96435.00
2024-02-17T00:48:51.045Z,96438.00
2024-02-17T00:49:51.177Z,96439.00
2024-02-17T00:50:57.775Z,96438.00
2024-02-17T00:51:51.930Z,96437.00
2024-02-17T00:52:50.925Z,96437.00
2024-02-17T00:53:50.942Z,96440.00
2024-02-17T00:54:50.988Z,96438.00
2024-02-17T00:55:50.961Z,96438.00
2024-02-17T00:56:50.927Z,96439.00
2024-02-17T00:57:50.966Z,96443.00
2024-02-17T00:58:50.931Z,96443.00
2024-02-17T00:59:50.932Z,96443.00
2024-02-17T01:00:51.107Z,96445.00
2024-02-17T01:01:51.185Z,96445.00
2024-02-17T01:02:50.925Z,96446.00
2024-02-17T01:03:51.015Z,96446.00
2024-02-17T01:04:51.029Z,96447.00
2024-02-17T01:05:50.994Z,96448.00
2024-02-17T01:06:51.077Z,96445.00
2024-02-17T01:07:50.946Z,96446.00
2024-02-17T01:08:50.943Z,96444.00
2024-02-17T01:09:51.020Z,96444.00
2024-02-17T01:10:51.082Z,96444.00
2024-02-17T01:11:51.099Z,96445.00
2024-02-17T01:12:51.167Z,96448.00
2024-02-17T01:13:51.213Z,96450.00
2024-02-17T01:14:51.244Z,96452.00
2024-02-17T01:15:51.376Z,96454.00
2024-02-17T01:16:51.409Z,96456.00
2024-02-17T01:17:51.522Z,96458.00
2024-02-17T01:18:51.736Z,96459.00
2024-02-17T01:19:51.609Z,96459.00
2024-02-17T01:20:51.587Z,96462.00
2024-02-17T01:21:51.745Z,96462.00
2024-02-17T01:22:51.676Z,96462.00
2024-02-17T01:23:51.766Z,96461.00
2024-02-17T01:24:51.851Z,96463.00
2024-02-17T01:25:51.863Z,96463.00
2024-02-17T01:26:51.906Z,96462.00
2024-02-17T01:27:51.984Z,96462.00
2024-02-17T01:28:51.990Z,96462.00
2024-02-17T01:29:52.063Z,96465.00
2024-02-17T01:30:52.129Z,96466.00
2024-02-17T01:31:52.163Z,96465.00
2024-02-17T01:32:52.217Z,96469.00
2024-02-17T01:33:52.369Z,96469.00
2024-02-17T01:34:52.357Z,96468.00
2024-02-17T01:35:52.414Z,96470.00
2024-02-17T01:36:52.498Z,96471.00
2024-02-17T01:37:52.506Z,96470.00
2024-02-17T01:38:52.533Z,96470.00
2024-02-17T01:39:52.570Z,96470.00
2024-02-17T01:40:52.595Z,96470.00
2024-02-17T01:41:52.634Z,96472.00
2024-02-17T01:42:52.702Z,96470.00
2024-02-17T01:43:52.736Z,96472.00
2024-02-17T01:44:52.829Z,96475.00
2024-02-17T01:45:52.892Z,96475.00
2024-02-17T01:46:52.916Z,96477.00
2024-02-17T01:47:53.095Z,96477.00
2024-02-17T01:48:53.255Z,96476.00
2024-02-17T01:49:53.126Z,96480.00
2024-02-17T01:50:53.163Z,96479.00
2024-02-17T01:51:53.218Z,96482.00
2024-02-17T01:52:53.231Z,96483.00
2024-02-17T01:53:53.289Z,96484.00
2024-02-17T01:54:53.370Z,96486.00
2024-02-17T01:55:53.378Z,96487.00
2024-02-17T01:56:53.431Z,96485.00
2024-02-17T01:57:53.780Z,96487.00
2024-02-17T01:58:53.576Z,96486.00
2024-02-17T01:59:53.566Z,96487.00
2024-02-17T02:00:53.720Z,96488.00
2024-02-17T02:01:53.708Z,96487.00
2024-02-17T02:02:53.781Z,96490.00
2024-02-17T02:03:53.929Z,96492.00
2024-02-17T02:04:53.987Z,96493.00
2024-02-17T02:05:54.015Z,96493.00
2024-02-17T02:06:54.104Z,96492.00
2024-02-17T02:07:54.189Z,96494.00
2024-02-17T02:08:54.224Z,96493.00
2024-02-17T02:09:54.305Z,96494.00
2024-02-17T02:10:54.374Z,96492.00
2024-02-17T02:11:54.418Z,96494.00
2024-02-17T02:12:54.618Z,96494.00
2024-02-17T02:13:54.603Z,96495.00
2024-02-17T02:14:54.761Z,96498.00
2024-02-17T02:15:55.285Z,96500.00
2024-02-17T02:16:54.792Z,96501.00
2024-02-17T02:17:54.881Z,96500.00
2024-02-17T02:18:54.975Z,96503.00
2024-02-17T02:19:55.076Z,96502.00
2024-02-17T02:20:55.029Z,96501.00
2024-02-17T02:21:55.103Z,96501.00
2024-02-17T02:22:55.182Z,96501.00
2024-02-17T02:23:55.253Z,96504.00
2024-02-17T02:24:55.336Z,96504.00
2024-02-17T02:25:55.412Z,96502.00
2024-02-17T02:26:55.480Z,96502.00
2024-02-17T02:27:55.657Z,96504.00
2024-02-17T02:28:55.616Z,96505.00
2024-02-17T02:29:55.662Z,96504.00
2024-02-17T02:30:55.788Z,96506.00
2024-02-17T02:31:55.881Z,96505.00
2024-02-17T02:32:55.991Z,96503.00
2024-02-17T02:33:56.006Z,96503.00
2024-02-17T02:34:56.140Z,96505.00
2024-02-17T02:35:56.092Z,96505.00
2024-02-17T02:36:56.157Z,96505.00
2024-02-17T02:37:56.239Z,96508.00
2024-02-17T02:38:56.269Z,96510.00
2024-02-17T02:39:56.356Z,96511.00
2024-02-17T02:40:56.394Z,96512.00
2024-02-17T02:41:56.459Z,96513.00
2024-02-17T02:42:56.562Z,96512.00
2024-02-17T02:43:56.586Z,96513.00
2024-02-17T02:44:56.651Z,96513.00
2024-02-17T02:45:56.769Z,96515.00
2024-02-17T02:46:56.767Z,96514.00
2024-02-17T02:47:56.913Z,96513.00
2024-02-17T02:48:56.966Z,96512.00
2024-02-17T02:49:57.029Z,96514.00
2024-02-17T02:50:57.050Z,96513.00
2024-02-17T02:51:57.082Z,96515.00
2024-02-17T02:52:57.158Z,96515.00
2024-02-17T02:53:57.230Z,96514.00
2024-02-17T02:54:57.303Z,96517.00
2024-02-17T02:55:57.325Z,96516.00
2024-02-17T02:56:57.380Z,96516.00
2024-02-17T02:57:57.455Z,96514.00
2024-02-17T02:58:57.499Z,96516.00
2024-02-17T02:59:57.544Z,96518.00
2024-02-17T03:00:57.681Z,96519.00
2024-02-17T03:01:57.652Z,96521.00
2024-02-17T03:02:57.744Z,96523.00
2024-02-17T03:03:57.849Z,96529.00
2024-02-17T03:04:57.815Z,96526.00
2024-02-17T03:05:57.987Z,96528.00
2024-02-17T03:06:58.027Z,96529.00
2024-02-17T03:07:58.015Z,96531.00
2024-02-17T03:08:58.101Z,96534.00
2024-02-17T03:09:58.180Z,96536.00
2024-02-17T03:10:58.251Z,96535.00
2024-02-17T03:11:58.284Z,96536.00
2024-02-17T03:12:58.351Z,96533.00
2024-02-17T03:13:58.420Z,96536.00
2024-02-17T03:14:58.467Z,96538.00
2024-02-17T03:15:58.607Z,96539.00
2024-02-17T03:16:58.608Z,96539.00
2024-02-17T03:17:58.700Z,96540.00
2024-02-17T03:18:58.871Z,96539.00
2024-02-17T03:19:58.890Z,96541.00
2024-02-17T03:20:58.849Z,96542.00
2024-02-17T03:21:58.959Z,96541.00
2024-02-17T03:22:58.976Z,96542.00
2024-02-17T03:23:59.042Z,96543.00
2024-02-17T03:24:59.115Z,96542.00
2024-02-17T03:25:59.176Z,96542.00
2024-02-17T03:26:59.229Z,96543.00
2024-02-17T03:27:59.292Z,96544.00
2024-02-17T03:28:59.374Z,96544.00
2024-02-17T03:29:59.434Z,96542.00
2024-02-17T03:30:59.483Z,96543.00
2024-02-17T03:31:59.556Z,96546.00
2024-02-17T03:32:59.692Z,96546.00
2024-02-17T03:33:59.757Z,96549.00
2024-02-17T03:34:59.844Z,96549.00
2024-02-17T03:35:59.781Z,96551.00
2024-02-17T03:36:59.861Z,96551.00
2024-02-17T03:37:59.932Z,96553.00
2024-02-17T03:38:59.982Z,96555.00
2024-02-17T03:40:00.192Z,96557.00
2024-02-17T03:41:00.122Z,96558.00
2024-02-17T03:42:00.209Z,96559.00
2024-02-17T03:43:00.222Z,96562.00
2024-02-17T03:44:00.269Z,96560.00
2024-02-17T03:45:00.328Z,96562.00
2024-02-17T03:46:00.355Z,96563.00
2024-02-17T03:47:00.420Z,96567.00
2024-02-17T03:48:00.549Z,96569.00
2024-02-17T03:49:00.686Z,96567.00
2024-02-17T03:50:00.628Z,96570.00
2024-02-17T03:51:00.614Z,96570.00
2024-02-17T03:52:00.651Z,96573.00
2024-02-17T03:53:00.709Z,96572.00
2024-02-17T03:54:00.752Z,96570.00
2024-02-17T03:55:00.824Z,96570.00
2024-02-17T03:56:00.870Z,96573.00
2024-02-17T03:57:00.924Z,96575.00
2024-02-17T03:58:00.980Z,96575.00
2024-02-17T03:59:01.027Z,96577.00
2024-02-17T04:00:01.141Z,96578.00
2024-02-17T04:01:01.317Z,96579.00
2024-02-17T04:02:01.203Z,96581.00
2024-02-17T04:03:22.284Z,96585.00
2024-02-17T04:04:01.523Z,96586.00
2024-02-17T04:05:01.318Z,96591.00
2024-02-17T04:06:01.403Z,96590.00
2024-02-17T04:07:01.367Z,96590.00
2024-02-17T04:08:01.391Z,96591.00
2024-02-17T04:09:01.260Z,96596.00
2024-02-17T04:10:01.380Z,96596.00
2024-02-17T04:11:01.307Z,96597.00
2024-02-17T04:12:01.246Z,96596.00
2024-02-17T04:13:01.247Z,96597.00
2024-02-17T04:14:01.258Z,96596.00
2024-02-17T04:15:01.265Z,96599.00
2024-02-17T04:16:01.337Z,96601.00
2024-02-17T04:17:01.244Z,96600.00
2024-02-17T04:18:01.397Z,96601.00
2024-02-17T04:19:01.388Z,96603.00
2024-02-17T04:20:01.455Z,96602.00
2024-02-17T04:21:01.276Z,96601.00
2024-02-17T04:22:01.259Z,96601.00
2024-02-17T04:23:01.257Z,96600.00
2024-02-17T04:24:01.285Z,96602.00
2024-02-17T04:25:01.271Z,96606.00
2024-02-17T04:26:01.260Z,96606.00
2024-02-17T04:27:01.275Z,96609.00
2024-02-17T04:28:01.251Z,96614.00
2024-02-17T04:29:01.255Z,96616.00
2024-02-17T04:30:01.310Z,96621.00
2024-02-17T04:31:01.285Z,96621.00
2024-02-17T04:32:01.269Z,96627.00
2024-02-17T04:33:01.311Z,96630.00
2024-02-17T04:34:01.403Z,96633.00
2024-02-17T04:35:01.378Z,96634.00
2024-02-17T04:36:01.260Z,96637.00
2024-02-17T04:37:01.309Z,96636.00
2024-02-17T04:38:01.300Z,96639.00
2024-02-17T04:39:08.569Z,96641.00
2024-02-17T04:40:08.530Z,96637.00
2024-02-17T04:41:08.549Z,96635.00
2024-02-17T04:42:08.562Z,96634.00
2024-02-17T04:43:08.546Z,96635.00
2024-02-17T04:44:08.543Z,96634.00
2024-02-17T04:45:08.572Z,96635.00
2024-02-17T04:46:08.543Z,96636.00
2024-02-17T04:47:08.549Z,96634.00
2024-02-17T04:48:08.612Z,96637.00
2024-02-17T04:49:08.730Z,96639.00
2024-02-17T04:50:08.549Z,96644.00
2024-02-17T04:51:08.570Z,96646.00
2024-02-17T04:52:08.542Z,96646.00
2024-02-17T04:53:08.548Z,96648.00
2024-02-17T04:54:08.586Z,96652.00
2024-02-17T04:55:08.571Z,96649.00
2024-02-17T04:56:08.552Z,96651.00
2024-02-17T04:57:08.668Z,96654.00
2024-02-17T04:58:08.564Z,96653.00
2024-02-17T04:59:08.564Z,96654.00
2024-02-17T05:00:08.624Z,96654.00
2024-02-17T05:01:08.623Z,96651.00
2024-02-17T05:02:08.577Z,96649.00
2024-02-17T05:03:08.651Z,96648.00
2024-02-17T05:04:08.693Z,96647.00
2024-02-17T05:05:08.578Z,96645.00
2024-02-17T05:06:08.704Z,96646.00
2024-02-17T05:07:08.608Z,96646.00
2024-02-17T05:08:08.577Z,96648.00
2024-02-17T05:09:08.585Z,96647.00
2024-02-17T05:10:08.592Z,96652.00
2024-02-17T05:11:08.594Z,96652.00
2024-02-17T05:12:08.787Z,96654.00
2024-02-17T05:13:08.775Z,96656.00
2024-02-17T05:14:08.729Z,96659.00
2024-02-17T05:15:08.817Z,96660.00
2024-02-17T05:16:08.779Z,96664.00
2024-02-17T05:17:08.815Z,96662.00
2024-02-17T05:18:08.927Z,96664.00
2024-02-17T05:19:08.930Z,96662.00
2024-02-17T05:20:08.927Z,96662.00
2024-02-17T05:21:08.979Z,96663.00
2024-02-17T05:22:10.062Z,96665.00
2024-02-17T05:23:09.024Z,96667.00
2024-02-17T05:24:09.075Z,96668.00
2024-02-17T05:25:09.125Z,96672.00
2024-02-17T05:26:09.109Z,96670.00
2024-02-17T05:27:09.179Z,96673.00
2024-02-17T05:28:09.189Z,96673.00
2024-02-17T05:29:09.229Z,96675.00
2024-02-17T05:30:09.288Z,96679.00
2024-02-17T05:31:09.291Z,96680.00
2024-02-17T05:32:09.493Z,96684.00
2024-02-17T05:33:09.518Z,96681.00
2024-02-17T05:34:09.441Z,96682.00
2024-02-17T05:35:09.510Z,96684.00
2024-02-17T05:36:09.476Z,96683.00
2024-02-17T05:37:09.499Z,96685.00
2024-02-17T05:38:09.532Z,96685.00
2024-02-17T05:39:09.624Z,96685.00
2024-02-17T05:40:09.595Z,96686.00
2024-02-17T05:41:09.653Z,96687.00
2024-02-17T05:42:09.674Z,96687.00
2024-02-17T05:43:09.707Z,96689.00
2024-02-17T05:44:09.717Z,96691.00
2024-02-17T05:45:09.866Z,96693.00
2024-02-17T05:46:09.774Z,96695.00
2024-02-17T05:47:09.801Z,96696.00
2024-02-17T05:48:09.965Z,96696.00
2024-02-17T05:49:09.940Z,96702.00
2024-02-17T05:50:09.905Z,96700.00
2024-02-17T05:51:10.003Z,96703.00
2024-02-17T05:52:11.137Z,96704.00
2024-02-17T05:53:10.009Z,96706.00
2024-02-17T05:54:10.076Z,96708.00
2024-02-17T05:55:10.055Z,96707.00
2024-02-17T05:56:10.127Z,96708.00
2024-02-17T05:57:10.161Z,96709.00
2024-02-17T05:58:10.149Z,96709.00
2024-02-17T05:59:10.200Z,96709.00
2024-02-17T06:00:10.238Z,96710.00
2024-02-17T06:01:10.377Z,96714.00
2024-02-17T06:02:10.313Z,96717.00
2024-02-17T06:03:10.386Z,96720.00
2024-02-17T06:04:10.618Z,96726.00
2024-02-17T06:05:10.478Z,96726.00
2024-02-17T06:06:10.488Z,96728.00
2024-02-17T06:07:10.581Z,96731.00
2024-02-17T06:08:10.548Z,96732.00
2024-02-17T06:09:10.592Z,96730.00
2024-02-17T06:10:10.621Z,96731.00
2024-02-17T06:11:10.716Z,96731.00
2024-02-17T06:12:10.726Z,96735.00
2024-02-17T06:13:10.738Z,96735.00
2024-02-17T06:14:10.736Z,96737.00
2024-02-17T06:15:10.851Z,96738.00
2024-02-17T06:16:10.802Z,96739.00
2024-02-17T06:17:10.832Z,96741.00
2024-02-17T06:18:11.005Z,96743.00
2024-02-17T06:19:10.994Z,96746.00
2024-02-17T06:20:10.926Z,96748.00
2024-02-17T06:21:11.012Z,96747.00
2024-02-17T06:22:11.001Z,96749.00
2024-02-17T06:23:11.080Z,96752.00
2024-02-17T06:24:11.227Z,96754.00
2024-02-17T06:25:11.102Z,96755.00
2024-02-17T06:26:11.107Z,96755.00
2024-02-17T06:27:11.169Z,96756.00
2024-02-17T06:28:11.187Z,96755.00
2024-02-17T06:29:11.213Z,96757.00
2024-02-17T06:30:11.262Z,96755.00
2024-02-17T06:31:11.282Z,96756.00
2024-02-17T06:32:11.283Z,96757.00
2024-02-17T06:33:11.486Z,96761.00
2024-02-17T06:34:11.371Z,96763.00
2024-02-17T06:35:11.441Z,96766.00
2024-02-17T06:36:11.440Z,96766.00
2024-02-17T06:37:11.426Z,96767.00
2024-02-17T06:38:11.467Z,96771.00
2024-02-17T06:39:11.527Z,96773.00
2024-02-17T06:40:11.512Z,96774.00
2024-02-17T06:41:11.536Z,96775.00
2024-02-17T06:42:11.564Z,96778.00
2024-02-17T06:43:11.595Z,96778.00
2024-02-17T06:44:11.599Z,96780.00
2024-02-17T06:45:11.744Z,96781.00
2024-02-17T06:46:11.674Z,96781.00
2024-02-17T06:47:11.688Z,96783.00
2024-02-17T06:48:11.812Z,96785.00
2024-02-17T06:49:11.826Z,96785.00
2024-02-17T06:50:14.382Z,96784.00
2024-02-17T06:51:11.831Z,96790.00
2024-02-17T06:52:11.779Z,96791.00
2024-02-17T06:53:11.789Z,96792.00
2024-02-17T06:54:11.800Z,96795.00
2024-02-17T06:55:11.780Z,96793.00
2024-02-17T06:56:11.778Z,96794.00
2024-02-17T06:57:11.810Z,96794.00
2024-02-17T06:58:11.805Z,96797.00
2024-02-17T06:59:11.804Z,96797.00
2024-02-17T07:00:12.744Z,96801.00
2024-02-17T07:01:11.892Z,96800.00
2024-02-17T07:02:11.784Z,96802.00
2024-02-17T07:03:11.820Z,96802.00
2024-02-17T07:04:11.832Z,96804.00
2024-02-17T07:05:11.863Z,96804.00
2024-02-17T07:06:11.924Z,96804.00
2024-02-17T07:07:11.884Z,96809.00
2024-02-17T07:08:11.792Z,96809.00
2024-02-17T07:09:11.823Z,96810.00
2024-02-17T07:10:11.812Z,96812.00
2024-02-17T07:11:11.829Z,96812.00
2024-02-17T07:12:11.828Z,96813.00
2024-02-17T07:13:11.798Z,96814.00
2024-02-17T07:14:11.801Z,96817.00
2024-02-17T07:15:11.830Z,96816.00
2024-02-17T07:16:11.896Z,96819.00
2024-02-17T07:17:11.821Z,96820.00
2024-02-17T07:18:12.192Z,96820.00
2024-02-17T07:19:11.891Z,96820.00
2024-02-17T07:20:11.894Z,96820.00
2024-02-17T07:21:11.835Z,96820.00
2024-02-17T07:22:11.814Z,96819.00
2024-02-17T07:23:11.828Z,96821.00
2024-02-17T07:24:11.867Z,96824.00
2024-02-17T07:25:11.838Z,96826.00
2024-02-17T07:26:11.849Z,96827.00
2024-02-17T07:27:11.879Z,96826.00
2024-02-17T07:28:13.316Z,96829.00
2024-02-17T07:29:11.838Z,96833.00
2024-02-17T07:30:11.884Z,96833.00
2024-02-17T07:31:11.841Z,96833.00
2024-02-17T07:32:11.846Z,96833.00
2024-02-17T07:33:12.174Z,96834.00
2024-02-17T07:34:11.928Z,96833.00
2024-02-17T07:35:11.893Z,96834.00
2024-02-17T07:36:11.875Z,96838.00
2024-02-17T07:37:11.881Z,96840.00
2024-02-17T07:38:12.499Z,96841.00
2024-02-17T07:39:11.922Z,96838.00
2024-02-17T07:40:11.908Z,96841.00
2024-02-17T07:41:11.901Z,96844.00
2024-02-17T07:42:11.967Z,96844.00
2024-02-17T07:43:11.935Z,96844.00
2024-02-17T07:44:11.926Z,96845.00
2024-02-17T07:45:11.959Z,96846.00
2024-02-17T07:46:11.935Z,96847.00
2024-02-17T07:47:11.949Z,96848.00
2024-02-17T07:48:12.117Z,96853.00
2024-02-17T07:49:12.069Z,96854.00
2024-02-17T07:50:12.265Z,96856.00
2024-02-17T07:51:12.077Z,96860.00
2024-02-17T07:52:12.025Z,96860.00
2024-02-17T07:53:12.058Z,96866.00
2024-02-17T07:54:12.085Z,96867.00
2024-02-17T07:55:12.098Z,96870.00
2024-02-17T07:56:12.186Z,96869.00
2024-02-17T07:57:12.187Z,96873.00
2024-02-17T07:58:12.162Z,96874.00
2024-02-17T07:59:12.166Z,96874.00
2024-02-17T08:00:14.563Z,96874.00
2024-02-17T08:01:12.444Z,96875.00
2024-02-17T08:02:12.363Z,96877.00
2024-02-17T08:03:12.413Z,96878.00
2024-02-17T08:04:12.488Z,96880.00
2024-02-17T08:05:12.475Z,96882.00
2024-02-17T08:06:12.591Z,96887.00
2024-02-17T08:07:12.550Z,96888.00
2024-02-17T08:08:12.496Z,96891.00
2024-02-17T08:09:12.536Z,96892.00
2024-02-17T08:10:12.592Z,96890.00
2024-02-17T08:11:12.560Z,96892.00
2024-02-17T08:12:12.593Z,96893.00
2024-02-17T08:13:12.545Z,96894.00
2024-02-17T08:14:12.543Z,96894.00
2024-02-17T08:15:12.611Z,96894.00
2024-02-17T08:16:12.606Z,96894.00
2024-02-17T08:17:12.580Z,96895.00
2024-02-17T08:18:12.687Z,96893.00
2024-02-17T08:19:12.695Z,96896.00
2024-02-17T08:20:12.826Z,96896.00
2024-02-17T08:21:12.719Z,96895.00
2024-02-17T08:22:12.626Z,96897.00
2024-02-17T08:23:12.640Z,96896.00
2024-02-17T08:24:12.667Z,96895.00
2024-02-17T08:25:12.668Z,96894.00
2024-02-17T08:26:12.672Z,96897.00
2024-02-17T08:27:12.709Z,96898.00
2024-02-17T08:28:12.701Z,96899.00
2024-02-17T08:29:12.731Z,96898.00
2024-02-17T08:30:12.820Z,96901.00
2024-02-17T08:31:12.755Z,96901.00
2024-02-17T08:32:12.824Z,96903.00
2024-02-17T08:33:13.791Z,96904.00
2024-02-17T08:34:12.924Z,96906.00
2024-02-17T08:35:12.914Z,96908.00
2024-02-17T08:36:12.834Z,96909.00
2024-02-17T08:37:12.811Z,96911.00
2024-02-17T08:38:12.782Z,96909.00
2024-02-17T08:39:12.811Z,96912.00
2024-02-17T08:40:13.836Z,96912.00
2024-02-17T08:41:12.804Z,96913.00
2024-02-17T08:42:12.829Z,96914.00
2024-02-17T08:43:12.813Z,96911.00
2024-02-17T08:44:14.599Z,96912.00
2024-02-17T08:45:12.871Z,96910.00
2024-02-17T08:46:12.822Z,96913.00
2024-02-17T08:47:12.841Z,96915.00
2024-02-17T08:48:13.048Z,96913.00
2024-02-17T08:49:12.900Z,96911.00
2024-02-17T08:50:12.845Z,96910.00
2024-02-17T08:51:12.916Z,96913.00
2024-02-17T08:52:12.862Z,96913.00
2024-02-17T08:53:12.881Z,96916.00
2024-02-17T08:54:12.944Z,96917.00
2024-02-17T08:55:12.950Z,96919.00
2024-02-17T08:56:12.909Z,96921.00
2024-02-17T08:57:13.013Z,96920.00
2024-02-17T08:58:12.941Z,96922.00
2024-02-17T08:59:12.986Z,96923.00
2024-02-17T09:00:13.038Z,96921.00
2024-02-17T09:01:13.319Z,96925.00
2024-02-17T09:02:13.017Z,96927.00
2024-02-17T09:03:13.070Z,96926.00
2024-02-17T09:04:13.100Z,96927.00
2024-02-17T09:05:13.105Z,96927.00
2024-02-17T09:06:13.127Z,96928.00
2024-02-17T09:07:13.172Z,96930.00
2024-02-17T09:08:13.091Z,96932.00
2024-02-17T09:09:13.117Z,96932.00
2024-02-17T09:10:13.087Z,96934.00
2024-02-17T09:11:14.870Z,96936.00
2024-02-17T09:12:13.199Z,96937.00
2024-02-17T09:13:13.195Z,96934.00
2024-02-17T09:14:13.180Z,96938.00
2024-02-17T09:15:13.250Z,96938.00
2024-02-17T09:16:13.201Z,96941.00
2024-02-17T09:17:13.214Z,96940.00
2024-02-17T09:18:13.295Z,96941.00
2024-02-17T09:19:13.287Z,96943.00
2024-02-17T09:20:13.291Z,96943.00
2024-02-17T09:21:13.247Z,96943.00
2024-02-17T09:22:13.228Z,96944.00
2024-02-17T09:23:13.223Z,96945.00
2024-02-17T09:24:13.281Z,96945.00
2024-02-17T09:25:13.265Z,96946.00
2024-02-17T09:26:13.260Z,96947.00
2024-02-17T09:27:13.312Z,96947.00
2024-02-17T09:28:13.304Z,96950.00
2024-02-17T09:29:13.273Z,96951.00
2024-02-17T09:30:13.299Z,96952.00
2024-02-17T09:31:13.280Z,96953.00
2024-02-17T09:32:13.275Z,96955.00
2024-02-17T09:33:13.462Z,96955.00
2024-02-17T09:34:13.402Z,96955.00
2024-02-17T09:35:13.350Z,96959.00
2024-02-17T09:36:13.419Z,96958.00
2024-02-17T09:37:13.292Z,96961.00
2024-02-17T09:38:13.302Z,96959.00
2024-02-17T09:39:13.329Z,96963.00
2024-02-17T09:40:13.417Z,96967.00
2024-02-17T09:41:13.345Z,96968.00
2024-02-17T09:42:13.572Z,96966.00
2024-02-17T09:43:13.450Z,96967.00
2024-02-17T09:44:13.507Z,96967.00
2024-02-17T09:45:13.599Z,96965.00
2024-02-17T09:46:13.818Z,96968.00
2024-02-17T09:47:13.744Z,96969.00
2024-02-17T09:48:13.905Z,96970.00
2024-02-17T09:49:14.605Z,96972.00
2024-02-17T09:50:13.996Z,96975.00
2024-02-17T09:51:13.986Z,96976.00
2024-02-17T09:52:13.995Z,96976.00
2024-02-17T09:53:14.039Z,96979.00
2024-02-17T09:54:14.108Z,96979.00
2024-02-17T09:55:14.149Z,96983.00
2024-02-17T09:56:14.206Z,96984.00
2024-02-17T09:57:14.336Z,96987.00
2024-02-17T09:58:14.418Z,96989.00
2024-02-17T09:59:14.361Z,96992.00
2024-02-17T10:00:14.493Z,96996.00
2024-02-17T10:01:14.541Z,96998.00
2024-02-17T10:02:14.573Z,96997.00
2024-02-17T10:03:14.688Z,97000.00
2024-02-17T10:04:14.710Z,97002.00
2024-02-17T10:05:14.675Z,97001.00
2024-02-17T10:06:14.883Z,97002.00
2024-02-17T10:07:14.799Z,97004.00
2024-02-17T10:08:14.792Z,97004.00
2024-02-17T10:09:14.862Z,97008.00
2024-02-17T10:10:14.873Z,97005.00
2024-02-17T10:11:15.029Z,97006.00
2024-02-17T10:12:14.999Z,97008.00
2024-02-17T10:13:15.024Z,97008.00
2024-02-17T10:14:15.108Z,97006.00
2024-02-17T10:15:15.172Z,97007.00
2024-02-17T10:16:15.224Z,97006.00
2024-02-17T10:17:15.268Z,97007.00
2024-02-17T10:18:16.313Z,97008.00
2024-02-17T10:19:15.434Z,97007.00
2024-02-17T10:20:15.501Z,97006.00
2024-02-17T10:21:15.554Z,97008.00
2024-02-17T10:22:15.596Z,97009.00
2024-02-17T10:23:15.693Z,97009.00
2024-02-17T10:24:15.748Z,97011.00
2024-02-17T10:25:15.789Z,97010.00
2024-02-17T10:26:15.848Z,97011.00
2024-02-17T10:27:15.937Z,97012.00
2024-02-17T10:28:15.945Z,97013.00
2024-02-17T10:29:15.989Z,97014.00
2024-02-17T10:30:16.096Z,97013.00
2024-02-17T10:31:16.096Z,97013.00
2024-02-17T10:32:16.176Z,97016.00
2024-02-17T10:33:16.443Z,97017.00
2024-02-17T10:34:16.551Z,97020.00
2024-02-17T10:35:16.440Z,97017.00
2024-02-17T10:36:16.495Z,97020.00
2024-02-17T10:37:16.543Z,97019.00
2024-02-17T10:38:16.596Z,97018.00
2024-02-17T10:39:16.752Z,97018.00
2024-02-17T10:40:16.725Z,97019.00
2024-02-17T10:41:16.794Z,97015.00
2024-02-17T10:42:16.940Z,97019.00
2024-02-17T10:43:16.931Z,97020.00
2024-02-17T10:44:16.988Z,97019.00
2024-02-17T10:45:17.158Z,97022.00
2024-02-17T10:46:17.172Z,97023.00
2024-02-17T10:47:17.234Z,97024.00
2024-02-17T10:48:17.414Z,97025.00
2024-02-17T10:49:17.467Z,97025.00
2024-02-17T10:50:18.589Z,97025.00
2024-02-17T10:51:17.506Z,97027.00
2024-02-17T10:52:17.597Z,97028.00
2024-02-17T10:53:17.684Z,97025.00
2024-02-17T10:54:17.769Z,97026.00
2024-02-17T10:55:17.761Z,97027.00
2024-02-17T10:56:17.835Z,97027.00
2024-02-17T10:57:17.933Z,97028.00
2024-02-17T10:58:18.005Z,97027.00
2024-02-17T10:59:18.033Z,97028.00
2024-02-17T11:00:18.135Z,97027.00
2024-02-17T11:01:18.411Z,97027.00
2024-02-17T11:02:18.249Z,97027.00
2024-02-17T11:03:18.429Z,97027.00
2024-02-17T11:04:18.436Z,97030.00
2024-02-17T11:05:18.565Z,97029.00
2024-02-17T11:06:18.699Z,97028.00
2024-02-17T11:07:18.701Z,97027.00
2024-02-17T11:08:18.718Z,97027.00
2024-02-17T11:09:18.809Z,97026.00
2024-02-17T11:10:18.854Z,97026.00
2024-02-17T11:11:18.928Z,97024.00
2024-02-17T11:12:19.027Z,97023.00
2024-02-17T11:13:19.046Z,97022.00
2024-02-17T11:14:19.122Z,97023.00
2024-02-17T11:15:19.235Z,97024.00
2024-02-17T11:16:19.318Z,97025.00
2024-02-17T11:17:19.347Z,97027.00
2024-02-17T11:18:19.450Z,97028.00
2024-02-17T11:19:28.516Z,97027.00
2024-02-17T11:20:20.640Z,97027.00
2024-02-17T11:21:19.537Z,97024.00
2024-02-17T11:22:19.500Z,97026.00
2024-02-17T11:23:19.489Z,97029.00
2024-02-17T11:24:19.576Z,97030.00
2024-02-17T11:25:19.504Z,97029.00
2024-02-17T11:26:28.986Z,97030.00
2024-02-17T11:27:20.524Z,97030.00
2024-02-17T11:28:19.521Z,97033.00
2024-02-17T11:29:19.533Z,97031.00
2024-02-17T11:30:20.064Z,97033.00
2024-02-17T11:31:19.535Z,97035.00
2024-02-17T11:32:19.510Z,97035.00
2024-02-17T11:33:19.657Z,97035.00
2024-02-17T11:34:19.617Z,97036.00
2024-02-17T11:35:19.658Z,97037.00
2024-02-17T11:36:19.788Z,97037.00
2024-02-17T11:37:19.772Z,97036.00
2024-02-17T11:38:19.795Z,97036.00
2024-02-17T11:39:19.949Z,97038.00
2024-02-17T11:40:19.928Z,97038.00
2024-02-17T11:41:19.981Z,97038.00
2024-02-17T11:42:20.160Z,97041.00
2024-02-17T11:43:20.083Z,97041.00
2024-02-17T11:44:20.136Z,97042.00
2024-02-17T11:45:20.200Z,97044.00